createdAt,value
2022-10-18T00:00:19.261Z,9.65
2022-10-18T00:01:07.257Z,10.68
2022-10-18T00:01:54.604Z,9.98
2022-10-18T00:02:41.450Z,10.35
2022-10-18T00:03:28.232Z,10.60
2022-10-18T00:04:15.031Z,10.05
2022-10-18T00:05:01.926Z,10.20
2022-10-18T00:05:49.825Z,9.85
2022-10-18T00:06:39.853Z,9.88
2022-10-18T00:07:29.727Z,10.27
2022-10-18T00:08:17.721Z,10.88
2022-10-18T00:09:04.790Z,11.85
2022-10-18T00:09:51.593Z,10.18
2022-10-18T00:10:38.491Z,10.27
2022-10-18T00:11:25.361Z,10.55
2022-10-18T00:12:12.143Z,10.38
2022-10-18T00:12:59.021Z,11.48
2022-10-18T00:13:45.781Z,10.40
2022-10-18T00:14:32.559Z,10.48
2022-10-18T00:15:19.608Z,11.45
2022-10-18T00:16:11.995Z,9.90
2022-10-18T00:16:58.787Z,10.25
2022-10-18T00:17:45.691Z,10.82
2022-10-18T00:18:32.473Z,10.40
2022-10-18T00:19:19.191Z,10.10
2022-10-18T00:20:06.843Z,9.85
2022-10-18T00:21:03.928Z,10.80
2022-10-18T00:21:51.451Z,10.18
2022-10-18T00:22:39.904Z,10.50
2022-10-18T00:23:27.622Z,10.73
2022-10-18T00:24:14.471Z,10.07
2022-10-18T00:25:01.228Z,10.82
2022-10-18T00:25:48.007Z,10.82
2022-10-18T00:26:34.781Z,10.18
2022-10-18T00:27:21.630Z,10.45
2022-10-18T00:28:08.382Z,10.77
2022-10-18T00:28:58.007Z,10.80
2022-10-18T00:29:44.991Z,10.27
2022-10-18T00:30:31.719Z,10.88
2022-10-18T00:31:20.098Z,10.77
2022-10-18T00:32:06.998Z,11.27
2022-10-18T00:32:53.778Z,10.15
2022-10-18T00:33:41.101Z,10.73
2022-10-18T00:34:27.931Z,10.43
2022-10-18T00:35:14.753Z,10.43
2022-10-18T00:36:01.503Z,10.63
2022-10-18T00:36:48.323Z,10.48
2022-10-18T00:37:36.031Z,10.40
2022-10-18T00:38:22.808Z,11.30
2022-10-18T00:39:16.791Z,10.93
2022-10-18T00:40:04.223Z,10.00
2022-10-18T00:40:51.022Z,9.48
2022-10-18T00:41:38.402Z,10.23
2022-10-18T00:42:29.809Z,10.25
2022-10-18T00:43:18.612Z,10.57
2022-10-18T00:44:27.097Z,10.30
2022-10-18T00:45:21.525Z,9.93
2022-10-18T00:46:08.270Z,10.43
2022-10-18T00:47:09.442Z,10.48
2022-10-18T00:48:01.142Z,9.82
2022-10-18T00:48:48.608Z,10.05
2022-10-18T00:49:42.265Z,10.20
2022-10-18T00:50:31.551Z,9.85
2022-10-18T00:51:20.298Z,10.50
2022-10-18T00:52:29.718Z,10.38
2022-10-18T00:55:20.920Z,9.88
2022-10-18T00:56:08.182Z,9.93
2022-10-18T00:56:55.270Z,9.15
2022-10-18T00:57:43.820Z,10.35
2022-10-18T00:58:30.831Z,10.05
2022-10-18T00:59:18.781Z,10.75
2022-10-18T01:00:10.095Z,10.15
2022-10-18T01:00:57.211Z,9.98
2022-10-18T01:01:45.227Z,9.75
2022-10-18T01:02:32.926Z,9.75
2022-10-18T01:03:20.081Z,10.00
2022-10-18T01:04:06.969Z,10.18
2022-10-18T01:04:53.861Z,10.85
2022-10-18T01:05:45.279Z,10.30
2022-10-18T01:06:33.171Z,10.73
2022-10-18T01:07:25.874Z,10.45
2022-10-18T01:08:44.490Z,9.50
2022-10-18T01:09:47.599Z,9.88
2022-10-18T01:10:40.379Z,9.95
2022-10-18T01:11:42.250Z,10.48
2022-10-18T01:12:29.070Z,10.65
2022-10-18T01:13:23.423Z,9.60
2022-10-18T01:14:42.609Z,10.32
2022-10-18T01:15:39.613Z,10.50
2022-10-18T01:16:54.379Z,10.25
2022-10-18T01:18:12.880Z,10.50
2022-10-18T01:19:38.433Z,9.52
2022-10-18T01:20:46.912Z,10.55
2022-10-18T01:21:48.860Z,9.60
2022-10-18T01:22:44.330Z,9.90
2022-10-18T01:23:52.740Z,9.13
2022-10-18T01:24:55.505Z,9.90
2022-10-18T01:25:46.889Z,9.77
2022-10-18T01:26:58.461Z,9.95
2022-10-18T01:28:03.839Z,10.02
2022-10-18T01:29:18.382Z,9.88
2022-10-18T01:30:43.791Z,9.45
2022-10-18T01:31:35.450Z,9.60
2022-10-18T01:32:26.911Z,10.05
2022-10-18T01:33:32.724Z,9.77
2022-10-18T01:34:20.260Z,9.57
2022-10-18T01:35:12.481Z,10.10
2022-10-18T01:36:06.371Z,9.63
2022-10-18T01:36:54.931Z,9.70
2022-10-18T01:37:42.500Z,9.60
2022-10-18T01:38:31.861Z,9.88
2022-10-18T01:39:25.102Z,10.00
2022-10-18T01:40:13.230Z,10.63
2022-10-18T01:41:01.398Z,10.35
2022-10-18T01:41:48.991Z,10.40
2022-10-18T01:42:35.803Z,10.40
2022-10-18T01:43:23.840Z,10.55
2022-10-18T01:44:16.546Z,10.52
2022-10-18T01:45:04.490Z,9.55
2022-10-18T01:45:54.111Z,10.00
2022-10-18T01:46:41.995Z,10.02
2022-10-18T01:47:29.426Z,10.00
2022-10-18T01:48:17.138Z,10.43
2022-10-18T01:49:04.600Z,10.57
2022-10-18T01:50:00.460Z,10.20
2022-10-18T01:50:47.379Z,9.82
2022-10-18T01:51:34.315Z,10.48
2022-10-18T01:52:21.210Z,10.57
2022-10-18T01:53:25.190Z,9.88
2022-10-18T01:54:14.739Z,9.77
2022-10-18T01:55:02.961Z,10.30
2022-10-18T01:55:58.580Z,9.60
2022-10-18T01:57:05.651Z,9.88
2022-10-18T01:58:07.450Z,10.23
2022-10-18T01:59:25.139Z,9.82
2022-10-18T02:00:28.829Z,9.65
2022-10-18T02:01:26.442Z,9.52
2022-10-18T02:02:43.819Z,9.60
2022-10-18T02:03:30.809Z,9.35
2022-10-18T02:04:27.372Z,9.88
2022-10-18T02:05:29.120Z,9.30
2022-10-18T02:06:23.130Z,10.20
2022-10-18T02:07:20.822Z,10.05
2022-10-18T02:08:26.791Z,9.38
2022-10-18T02:09:32.230Z,9.77
2022-10-18T02:10:24.842Z,9.50
2022-10-18T02:11:16.552Z,9.98
2022-10-18T02:12:04.030Z,10.27
2022-10-18T02:12:52.420Z,10.00
2022-10-18T02:13:52.239Z,10.30
2022-10-18T02:14:40.251Z,9.57
2022-10-18T02:15:31.510Z,9.45
2022-10-18T02:16:24.011Z,10.70
2022-10-18T02:17:12.652Z,10.25
2022-10-18T02:18:00.931Z,9.57
2022-10-18T02:18:52.422Z,9.50
2022-10-18T02:19:42.861Z,9.43
2022-10-18T02:20:32.040Z,9.52
2022-10-18T02:21:20.128Z,10.23
2022-10-18T02:22:09.354Z,9.25
2022-10-18T02:22:56.969Z,9.75
2022-10-18T02:23:45.690Z,9.68
2022-10-18T02:24:38.705Z,10.40
2022-10-18T02:25:29.299Z,10.18
2022-10-18T02:27:03.156Z,10.38
2022-10-18T02:27:50.160Z,10.07
2022-10-18T02:28:37.160Z,8.98
2022-10-18T02:29:24.130Z,11.27
2022-10-18T02:30:11.527Z,9.73
2022-10-18T02:31:07.280Z,10.13
2022-10-18T02:32:06.789Z,10.20
2022-10-18T02:33:23.931Z,10.07
2022-10-18T02:34:23.803Z,9.63
2022-10-18T02:35:21.388Z,9.27
2022-10-18T02:36:19.020Z,9.75
2022-10-18T02:37:05.906Z,9.43
2022-10-18T02:37:54.370Z,10.07
2022-10-18T02:38:42.670Z,9.75
2022-10-18T02:39:36.111Z,10.70
2022-10-18T02:40:23.400Z,10.48
2022-10-18T02:41:10.280Z,9.65
2022-10-18T02:41:58.202Z,10.48
2022-10-18T02:42:48.890Z,9.52
2022-10-18T02:44:22.648Z,9.43
2022-10-18T02:45:09.610Z,9.55
2022-10-18T02:45:56.518Z,10.35
2022-10-18T02:46:43.441Z,10.32
2022-10-18T02:47:30.607Z,10.35
2022-10-18T02:48:17.689Z,9.77
2022-10-18T02:49:04.710Z,10.38
2022-10-18T02:49:51.589Z,9.60
2022-10-18T02:50:38.690Z,9.82
2022-10-18T02:51:25.739Z,10.02
2022-10-18T02:52:12.560Z,10.50
2022-10-18T02:52:59.498Z,10.60
2022-10-18T02:53:46.449Z,10.40
2022-10-18T02:54:33.361Z,10.10
2022-10-18T02:55:20.310Z,10.32
2022-10-18T02:56:07.473Z,10.27
2022-10-18T02:56:54.401Z,10.38
2022-10-18T02:57:41.300Z,9.25
2022-10-18T02:58:28.164Z,11.00
2022-10-18T02:59:15.102Z,9.30
2022-10-18T03:00:02.269Z,9.70
2022-10-18T03:00:51.080Z,10.30
2022-10-18T03:01:38.017Z,10.57
2022-10-18T03:02:25.010Z,10.35
2022-10-18T03:03:11.931Z,10.60
2022-10-18T03:03:58.800Z,10.13
2022-10-18T03:04:45.732Z,9.55
2022-10-18T03:05:32.541Z,9.88
2022-10-18T03:06:19.590Z,10.48
2022-10-18T03:07:06.512Z,10.23
2022-10-18T03:07:53.392Z,11.07
2022-10-18T03:08:40.305Z,10.20
2022-10-18T03:09:27.349Z,10.13
2022-10-18T03:10:14.391Z,9.98
2022-10-18T03:11:01.300Z,10.23
2022-10-18T03:11:48.350Z,9.88
2022-10-18T03:12:35.210Z,9.70
2022-10-18T03:13:22.376Z,9.38
2022-10-18T03:14:09.259Z,9.60
2022-10-18T03:14:56.091Z,10.23
2022-10-18T03:15:42.960Z,10.80
2022-10-18T03:16:29.890Z,10.52
2022-10-18T03:17:16.780Z,10.18
2022-10-18T03:18:04.140Z,9.90
2022-10-18T03:18:51.130Z,9.30
2022-10-18T03:19:39.000Z,9.90
2022-10-18T03:20:25.860Z,10.10
2022-10-18T03:21:12.710Z,10.00
2022-10-18T03:21:59.593Z,9.88
2022-10-18T03:22:46.520Z,9.98
2022-10-18T03:23:33.660Z,10.20
2022-10-18T03:24:20.470Z,9.80
2022-10-18T03:25:07.657Z,9.95
2022-10-18T03:25:54.498Z,10.43
2022-10-18T03:26:41.490Z,10.20
2022-10-18T03:27:28.510Z,10.38
2022-10-18T03:28:15.562Z,10.23
2022-10-18T03:29:02.571Z,9.90
2022-10-18T03:29:49.452Z,9.10
2022-10-18T03:30:36.221Z,9.73
2022-10-18T03:31:23.394Z,9.52
2022-10-18T03:32:10.279Z,10.05
2022-10-18T03:32:57.211Z,9.95
2022-10-18T03:33:44.160Z,9.95
2022-10-18T03:34:31.106Z,10.10
2022-10-18T03:35:18.130Z,9.57
2022-10-18T03:36:05.190Z,9.95
2022-10-18T03:36:52.063Z,10.13
2022-10-18T03:37:39.067Z,10.40
2022-10-18T03:38:26.069Z,10.30
2022-10-18T03:39:13.249Z,9.98
2022-10-18T03:40:00.154Z,10.02
2022-10-18T03:40:46.992Z,9.48
2022-10-18T03:41:34.030Z,10.18
2022-10-18T03:42:20.812Z,9.70
2022-10-18T03:43:07.808Z,10.30
2022-10-18T03:43:54.650Z,9.98
2022-10-18T03:44:41.570Z,9.45
2022-10-18T03:45:31.207Z,10.20
2022-10-18T03:46:18.581Z,9.50
2022-10-18T03:47:05.409Z,9.52
2022-10-18T03:47:52.232Z,9.38
2022-10-18T03:48:39.280Z,9.68
2022-10-18T03:49:26.162Z,9.75
2022-10-18T03:50:12.931Z,10.65
2022-10-18T03:50:59.776Z,9.93
2022-10-18T03:51:46.640Z,10.07
2022-10-18T03:52:33.669Z,10.27
2022-10-18T03:53:20.830Z,10.10
2022-10-18T03:54:07.750Z,10.23
2022-10-18T03:54:54.633Z,9.88
2022-10-18T03:55:41.509Z,9.70
2022-10-18T03:56:28.461Z,10.25
2022-10-18T03:57:15.389Z,10.38
2022-10-18T03:58:02.246Z,10.52
2022-10-18T03:58:49.129Z,10.60
2022-10-18T03:59:35.981Z,10.38
2022-10-18T04:00:23.050Z,10.25
2022-10-18T04:01:10.120Z,10.85
2022-10-18T04:01:57.134Z,9.75
2022-10-18T04:02:44.039Z,10.85
2022-10-18T04:03:30.960Z,10.23
2022-10-18T04:04:17.895Z,10.52
2022-10-18T04:05:04.990Z,10.38
2022-10-18T04:05:51.992Z,10.63
2022-10-18T04:06:39.050Z,11.10
2022-10-18T04:07:26.253Z,10.55
2022-10-18T04:08:13.782Z,11.70
2022-10-18T04:09:00.611Z,10.25
2022-10-18T04:09:47.529Z,11.05
2022-10-18T04:10:34.411Z,10.38
2022-10-18T04:11:21.254Z,9.68
2022-10-18T04:12:08.099Z,10.05
2022-10-18T04:12:55.149Z,10.25
2022-10-18T04:13:42.070Z,10.32
2022-10-18T04:14:29.201Z,9.60
2022-10-18T04:15:16.141Z,11.25
2022-10-18T04:16:03.270Z,10.80
2022-10-18T04:16:50.341Z,10.18
2022-10-18T04:17:37.311Z,9.77
2022-10-18T04:18:24.261Z,10.52
2022-10-18T04:19:11.180Z,10.85
2022-10-18T04:19:58.100Z,10.48
2022-10-18T04:20:44.940Z,10.57
2022-10-18T04:21:31.874Z,10.65
2022-10-18T04:22:18.869Z,11.27
2022-10-18T04:23:05.732Z,10.50
2022-10-18T04:23:52.785Z,11.02
2022-10-18T04:24:39.820Z,10.73
2022-10-18T04:25:26.760Z,10.85
2022-10-18T04:26:13.741Z,10.20
2022-10-18T04:27:00.649Z,10.60
2022-10-18T04:27:47.730Z,10.75
2022-10-18T04:28:35.221Z,10.70
2022-10-18T04:29:22.241Z,11.52
2022-10-18T04:30:09.640Z,10.13
2022-10-18T04:30:56.550Z,11.12
2022-10-18T04:31:43.504Z,9.80
2022-10-18T04:32:30.422Z,11.12
2022-10-18T04:33:17.752Z,10.10
2022-10-18T04:34:04.771Z,9.98
2022-10-18T04:34:51.634Z,10.38
2022-10-18T04:35:38.651Z,11.40
2022-10-18T04:36:25.549Z,11.23
2022-10-18T04:37:12.560Z,11.07
2022-10-18T04:37:59.380Z,10.63
2022-10-18T04:38:46.351Z,10.70
2022-10-18T04:39:33.300Z,10.68
2022-10-18T04:40:20.663Z,10.52
2022-10-18T04:41:07.561Z,10.57
2022-10-18T04:41:54.360Z,10.30
2022-10-18T04:42:41.234Z,12.07
2022-10-18T04:43:28.100Z,10.90
2022-10-18T04:44:15.030Z,11.50
2022-10-18T04:45:02.040Z,11.02
2022-10-18T04:45:51.383Z,10.80
2022-10-18T04:46:38.190Z,11.52
2022-10-18T04:47:25.030Z,10.95
2022-10-18T04:48:12.139Z,11.07
2022-10-18T04:49:01.391Z,11.15
2022-10-18T04:49:48.251Z,10.48
2022-10-18T04:50:35.251Z,10.60
2022-10-18T04:51:22.159Z,10.82
2022-10-18T04:52:09.380Z,10.90
2022-10-18T04:52:56.311Z,11.02
2022-10-18T04:53:43.180Z,10.57
2022-10-18T04:54:30.122Z,10.98
2022-10-18T04:55:17.008Z,11.12
2022-10-18T04:56:03.932Z,10.77
2022-10-18T04:56:50.862Z,10.85
2022-10-18T04:57:37.770Z,11.05
2022-10-18T04:58:25.090Z,11.00
2022-10-18T04:59:11.991Z,11.32
2022-10-18T04:59:58.963Z,11.55
2022-10-18T05:00:46.092Z,10.63
2022-10-18T05:01:32.977Z,11.02
2022-10-18T05:02:20.000Z,10.80
2022-10-18T05:03:07.521Z,11.55
2022-10-18T05:03:55.149Z,11.12
2022-10-18T05:04:42.110Z,11.48
2022-10-18T05:05:49.673Z,11.65
2022-10-18T05:06:36.570Z,10.63
2022-10-18T05:07:23.432Z,10.88
2022-10-18T05:08:10.320Z,11.30
2022-10-18T05:08:57.229Z,10.20
2022-10-18T05:09:44.080Z,11.30
2022-10-18T05:10:31.000Z,11.35
2022-10-18T05:11:18.050Z,11.48
2022-10-18T05:12:05.150Z,10.73
2022-10-18T05:12:52.120Z,10.70
2022-10-18T05:13:38.977Z,10.85
2022-10-18T05:14:25.930Z,10.82
2022-10-18T05:15:12.754Z,11.15
2022-10-18T05:16:00.519Z,11.07
2022-10-18T05:16:47.459Z,11.65
2022-10-18T05:17:34.382Z,11.07
2022-10-18T05:18:21.348Z,10.63
2022-10-18T05:19:08.292Z,10.82
2022-10-18T05:19:55.230Z,11.85
2022-10-18T05:20:42.271Z,11.25
2022-10-18T05:21:29.141Z,11.07
2022-10-18T05:22:16.030Z,11.27
2022-10-18T05:23:02.923Z,10.73
2022-10-18T05:23:49.825Z,11.18
2022-10-18T05:24:36.798Z,10.65
2022-10-18T05:25:23.648Z,11.48
2022-10-18T05:26:10.551Z,11.70
2022-10-18T05:26:57.950Z,10.93
2022-10-18T05:27:44.740Z,10.93
2022-10-18T05:28:39.655Z,10.77
2022-10-18T05:30:19.109Z,10.57
2022-10-18T05:31:07.411Z,10.38
2022-10-18T05:31:54.300Z,11.27
2022-10-18T05:32:41.163Z,10.85
2022-10-18T05:33:28.054Z,11.35
2022-10-18T05:34:14.931Z,12.00
2022-10-18T05:35:01.971Z,10.45
2022-10-18T05:35:49.071Z,10.48
2022-10-18T05:36:35.932Z,10.85
2022-10-18T05:37:27.484Z,11.07
2022-10-18T05:38:15.330Z,10.88
2022-10-18T05:39:05.697Z,10.77
2022-10-18T05:39:52.540Z,10.70
2022-10-18T05:40:39.817Z,10.90
2022-10-18T05:41:26.761Z,11.38
2022-10-18T05:42:13.800Z,10.77
2022-10-18T05:43:00.616Z,10.60
2022-10-18T05:43:47.682Z,10.95
2022-10-18T05:44:34.640Z,10.32
2022-10-18T05:45:21.472Z,11.25
2022-10-18T05:46:13.482Z,10.02
2022-10-18T05:47:01.751Z,10.40
2022-10-18T05:47:48.582Z,11.55
2022-10-18T05:48:35.540Z,10.30
2022-10-18T05:49:22.351Z,11.07
2022-10-18T05:50:09.761Z,10.43
2022-10-18T05:51:00.419Z,11.27
2022-10-18T05:52:34.380Z,10.38
2022-10-18T05:53:37.775Z,10.52
2022-10-18T05:54:24.867Z,10.70
2022-10-18T05:55:11.879Z,10.88
2022-10-18T05:56:02.306Z,11.12
2022-10-18T05:56:49.161Z,11.15
2022-10-18T05:57:36.052Z,10.95
2022-10-18T05:58:23.029Z,12.05
2022-10-18T05:59:12.505Z,11.00
2022-10-18T05:59:59.420Z,11.23
2022-10-18T06:00:46.314Z,14.60
2022-10-18T06:01:33.190Z,12.30
2022-10-18T06:02:20.261Z,11.57
2022-10-18T06:03:07.210Z,11.48
2022-10-18T06:03:54.001Z,11.52
2022-10-18T06:04:40.880Z,11.23
2022-10-18T06:05:28.062Z,11.32
2022-10-18T06:06:15.700Z,11.82
2022-10-18T06:07:02.716Z,11.35
2022-10-18T06:07:49.620Z,10.90
2022-10-18T06:08:37.439Z,10.98
2022-10-18T06:09:24.470Z,10.82
2022-10-18T06:10:11.492Z,10.57
2022-10-18T06:10:58.664Z,11.00
2022-10-18T06:11:45.559Z,10.88
2022-10-18T06:12:32.423Z,11.32
2022-10-18T06:13:19.327Z,10.73
2022-10-18T06:14:08.301Z,10.52
2022-10-18T06:14:55.236Z,10.40
2022-10-18T06:15:42.219Z,10.30
2022-10-18T06:16:32.456Z,11.10
2022-10-18T06:18:06.277Z,10.23
2022-10-18T06:18:55.652Z,10.70
2022-10-18T06:19:44.696Z,9.85
2022-10-18T06:20:31.843Z,10.32
2022-10-18T06:21:19.975Z,10.15
2022-10-18T06:22:07.165Z,10.82
2022-10-18T06:22:54.022Z,10.57
2022-10-18T06:23:41.149Z,10.82
2022-10-18T06:24:28.029Z,11.43
2022-10-18T06:25:15.001Z,10.85
2022-10-18T06:26:03.850Z,10.45
2022-10-18T06:26:50.810Z,10.70
2022-10-18T06:27:37.731Z,10.50
2022-10-18T06:28:24.623Z,11.15
2022-10-18T06:29:11.776Z,10.32
2022-10-18T06:29:58.699Z,10.55
2022-10-18T06:30:45.560Z,10.35
2022-10-18T06:31:32.871Z,11.23
2022-10-18T06:32:20.348Z,10.07
2022-10-18T06:33:07.155Z,10.23
2022-10-18T06:33:57.151Z,10.35
2022-10-18T06:34:44.052Z,10.75
2022-10-18T06:35:32.015Z,11.12
2022-10-18T06:36:22.305Z,10.90
2022-10-18T06:37:09.669Z,10.10
2022-10-18T06:37:57.904Z,10.35
2022-10-18T06:38:45.170Z,10.27
2022-10-18T06:39:32.053Z,10.82
2022-10-18T06:40:18.962Z,10.68
2022-10-18T06:41:07.305Z,10.20
2022-10-18T06:41:54.165Z,9.88
2022-10-18T06:42:41.102Z,11.02
2022-10-18T06:43:28.727Z,10.52
2022-10-18T06:44:15.600Z,10.25
2022-10-18T06:45:03.491Z,10.68
2022-10-18T06:45:50.801Z,11.30
2022-10-18T06:46:37.683Z,10.40
2022-10-18T06:47:24.690Z,10.10
2022-10-18T06:48:11.749Z,9.88
2022-10-18T06:48:58.731Z,10.23
2022-10-18T06:49:45.572Z,9.60
2022-10-18T06:50:32.430Z,10.25
2022-10-18T06:51:19.831Z,11.65
2022-10-18T06:52:07.663Z,10.02
2022-10-18T06:52:54.592Z,10.50
2022-10-18T06:53:44.334Z,10.18
2022-10-18T06:54:35.630Z,10.15
2022-10-18T06:55:22.648Z,10.07
2022-10-18T06:56:12.521Z,10.63
2022-10-18T06:56:59.704Z,9.30
2022-10-18T06:57:46.842Z,10.65
2022-10-18T06:58:35.267Z,10.93
2022-10-18T06:59:22.970Z,10.15
2022-10-18T07:00:12.091Z,10.05
2022-10-18T07:00:59.081Z,10.52
2022-10-18T07:01:45.916Z,10.55
2022-10-18T07:02:33.143Z,9.77
2022-10-18T07:03:22.030Z,11.25
2022-10-18T07:04:08.850Z,10.32
2022-10-18T07:04:55.647Z,11.20
2022-10-18T07:05:42.543Z,10.75
2022-10-18T07:06:29.399Z,10.38
2022-10-18T07:07:16.310Z,13.45
2022-10-18T07:08:03.570Z,13.85
2022-10-18T07:08:53.055Z,15.60
2022-10-18T07:09:40.736Z,13.60
2022-10-18T07:10:27.684Z,13.77
2022-10-18T07:11:17.075Z,13.80
2022-10-18T07:12:04.101Z,13.73
2022-10-18T07:12:53.490Z,15.70
2022-10-18T07:13:43.024Z,15.20
2022-10-18T07:14:30.039Z,14.70
2022-10-18T07:15:18.113Z,14.35
2022-10-18T07:16:14.107Z,15.82
2022-10-18T07:17:05.006Z,14.75
2022-10-18T07:17:51.961Z,14.90
2022-10-18T07:18:40.696Z,16.20
2022-10-18T07:19:27.660Z,17.10
2022-10-18T07:20:14.651Z,16.23
2022-10-18T07:21:03.769Z,16.08
2022-10-18T07:21:50.705Z,17.80
2022-10-18T07:22:38.490Z,16.10
2022-10-18T07:23:25.351Z,16.33
2022-10-18T07:24:12.261Z,15.15
2022-10-18T07:24:59.181Z,18.25
2022-10-18T07:25:46.250Z,15.18
2022-10-18T07:26:34.941Z,17.77
2022-10-18T07:27:21.930Z,14.60
2022-10-18T07:28:08.721Z,16.08
2022-10-18T07:29:09.888Z,14.55
2022-10-18T07:29:56.940Z,14.05
2022-10-18T07:30:43.864Z,14.87
2022-10-18T07:31:30.861Z,14.48
2022-10-18T07:32:17.662Z,14.93
2022-10-18T07:33:04.612Z,14.45
2022-10-18T07:33:52.241Z,16.62
2022-10-18T07:34:39.143Z,14.98
2022-10-18T07:35:26.060Z,13.20
2022-10-18T07:36:13.730Z,13.95
2022-10-18T07:37:02.440Z,13.82
2022-10-18T07:37:49.392Z,13.52
2022-10-18T07:38:36.700Z,13.27
2022-10-18T07:39:23.684Z,11.77
2022-10-18T07:40:12.190Z,12.02
2022-10-18T07:41:00.354Z,11.77
2022-10-18T07:41:47.430Z,14.13
2022-10-18T07:42:36.112Z,12.98
2022-10-18T07:43:22.984Z,14.48
2022-10-18T07:44:10.047Z,13.20
2022-10-18T07:44:57.279Z,13.15
2022-10-18T07:45:55.041Z,12.93
2022-10-18T07:46:41.980Z,10.98
2022-10-18T07:47:31.262Z,10.65
2022-10-18T07:48:21.219Z,12.55
2022-10-18T07:49:08.243Z,12.73
2022-10-18T07:49:55.068Z,12.98
2022-10-18T07:50:42.471Z,12.00
2022-10-18T07:51:31.153Z,13.05
2022-10-18T07:52:18.041Z,11.55
2022-10-18T07:53:04.769Z,12.43
2022-10-18T07:53:52.062Z,13.85
2022-10-18T07:54:39.396Z,13.75
2022-10-18T07:55:26.454Z,13.62
2022-10-18T07:56:16.758Z,12.75
2022-10-18T07:57:05.467Z,11.82
2022-10-18T07:57:53.342Z,11.70
2022-10-18T07:58:40.167Z,11.15
2022-10-18T07:59:27.180Z,11.68
2022-10-18T08:00:14.444Z,11.05
2022-10-18T08:01:06.151Z,10.35
2022-10-18T08:01:53.352Z,11.25
2022-10-18T08:02:40.320Z,10.98
2022-10-18T08:03:27.199Z,10.82
2022-10-18T08:04:16.507Z,10.27
2022-10-18T08:05:04.116Z,10.95
2022-10-18T08:05:54.980Z,11.70
2022-10-18T08:06:42.140Z,12.40
2022-10-18T08:07:29.415Z,13.52
2022-10-18T08:08:16.742Z,13.62
2022-10-18T08:09:03.914Z,13.90
2022-10-18T08:09:50.841Z,12.68
2022-10-18T08:10:37.812Z,12.23
2022-10-18T08:11:25.609Z,12.07
2022-10-18T08:12:12.981Z,11.45
2022-10-18T08:12:59.999Z,10.48
2022-10-18T08:13:47.311Z,9.48
2022-10-18T08:14:34.155Z,10.13
2022-10-18T08:15:25.071Z,10.57
2022-10-18T08:16:14.160Z,10.00
2022-10-18T08:17:01.319Z,10.10
2022-10-18T08:17:48.179Z,11.23
2022-10-18T08:18:35.977Z,10.50
2022-10-18T08:19:22.981Z,10.80
2022-10-18T08:20:19.298Z,11.38
2022-10-18T08:21:18.669Z,11.25
2022-10-18T08:22:05.591Z,10.60
2022-10-18T08:22:54.535Z,12.18
2022-10-18T08:23:45.707Z,11.75
2022-10-18T08:24:32.475Z,11.52
2022-10-18T08:25:19.301Z,10.85
2022-10-18T08:26:08.879Z,11.63
2022-10-18T08:26:55.950Z,12.10
2022-10-18T08:27:42.837Z,12.15
2022-10-18T08:28:30.606Z,12.20
2022-10-18T08:29:23.858Z,11.27
2022-10-18T08:30:11.820Z,10.57
2022-10-18T08:31:03.064Z,10.60
2022-10-18T08:31:51.090Z,10.95
2022-10-18T08:32:38.060Z,10.07
2022-10-18T08:33:24.850Z,11.52
2022-10-18T08:34:14.772Z,11.48
2022-10-18T08:35:06.866Z,11.55
2022-10-18T08:35:59.710Z,11.75
2022-10-18T08:36:47.611Z,9.98
2022-10-18T08:37:34.875Z,10.60
2022-10-18T08:38:21.940Z,10.57
2022-10-18T08:39:08.778Z,10.70
2022-10-18T08:39:55.866Z,10.77
2022-10-18T08:40:44.485Z,9.98
2022-10-18T08:41:37.575Z,9.98
2022-10-18T08:42:35.281Z,10.00
2022-10-18T08:43:25.106Z,10.10
2022-10-18T08:44:19.411Z,9.70
2022-10-18T08:45:17.762Z,9.48
2022-10-18T08:46:15.462Z,10.85
2022-10-18T08:47:17.860Z,10.73
2022-10-18T08:48:05.940Z,10.57
2022-10-18T08:48:55.530Z,9.93
2022-10-18T08:49:55.435Z,8.82
2022-10-18T08:50:42.911Z,8.48
2022-10-18T08:51:38.281Z,8.90
2022-10-18T08:52:45.358Z,8.85
2022-10-18T08:53:37.606Z,9.20
2022-10-18T08:54:38.990Z,8.70
2022-10-18T08:55:40.322Z,9.18
2022-10-18T08:56:27.498Z,8.13
2022-10-18T08:57:18.201Z,8.35
2022-10-18T08:58:25.009Z,7.57
2022-10-18T08:59:13.194Z,8.98
2022-10-18T09:00:00.922Z,7.82
2022-10-18T09:01:21.901Z,7.68
2022-10-18T09:02:20.218Z,8.20
2022-10-18T09:03:44.754Z,8.23
2022-10-18T09:04:37.677Z,8.32
2022-10-18T09:05:39.698Z,8.50
2022-10-18T09:07:04.430Z,8.60
2022-10-18T09:08:00.100Z,7.80
2022-10-18T09:09:25.924Z,10.70
2022-10-18T09:10:37.764Z,9.35
2022-10-18T09:11:48.345Z,10.38
2022-10-18T09:12:56.669Z,10.68
2022-10-18T09:14:08.406Z,9.70
2022-10-18T09:15:10.944Z,8.50
2022-10-18T09:16:00.540Z,8.23
2022-10-18T09:16:57.840Z,7.53
2022-10-18T09:18:09.731Z,6.85
2022-10-18T09:19:12.193Z,7.40
2022-10-18T09:20:15.211Z,7.50
2022-10-18T09:21:22.995Z,7.53
2022-10-18T09:22:14.511Z,7.62
2022-10-18T09:23:16.970Z,7.80
2022-10-18T09:24:06.479Z,7.18
2022-10-18T09:25:01.080Z,7.45
2022-10-18T09:25:50.268Z,9.15
2022-10-18T09:26:48.470Z,8.23
2022-10-18T09:27:45.530Z,7.62
2022-10-18T09:28:53.996Z,8.63
2022-10-18T09:30:16.685Z,9.57
2022-10-18T09:31:23.879Z,8.68
2022-10-18T09:32:25.779Z,8.10
2022-10-18T09:33:30.410Z,8.23
2022-10-18T09:34:37.997Z,8.38
2022-10-18T09:35:27.951Z,8.82
2022-10-18T09:36:25.215Z,8.73
2022-10-18T09:37:14.420Z,9.93
2022-10-18T09:38:09.516Z,9.50
2022-10-18T09:39:04.561Z,9.50
2022-10-18T09:40:05.199Z,10.07
2022-10-18T09:41:46.361Z,8.80
2022-10-18T09:42:52.531Z,8.65
2022-10-18T09:43:53.243Z,6.95
2022-10-18T09:45:39.560Z,7.53
2022-10-18T09:46:31.813Z,7.15
2022-10-18T09:47:39.842Z,7.70
2022-10-18T09:48:27.710Z,7.68
2022-10-18T09:49:18.880Z,7.97
2022-10-18T09:50:26.359Z,7.78
2022-10-18T09:51:21.813Z,7.78
2022-10-18T09:52:17.331Z,7.37
2022-10-18T09:53:10.210Z,8.32
2022-10-18T09:53:57.021Z,8.10
2022-10-18T09:54:48.280Z,7.62
2022-10-18T09:55:40.800Z,8.30
2022-10-18T09:56:39.338Z,8.10
2022-10-18T09:57:38.930Z,7.93
2022-10-18T09:58:27.331Z,8.30
2022-10-18T09:59:37.460Z,8.35
2022-10-18T10:00:32.314Z,7.70
2022-10-18T10:01:22.342Z,7.15
2022-10-18T10:02:15.428Z,7.47
2022-10-18T10:03:07.309Z,7.65
2022-10-18T10:03:54.291Z,7.57
2022-10-18T10:04:41.291Z,7.90
2022-10-18T10:05:28.400Z,7.55
2022-10-18T10:06:18.118Z,8.50
2022-10-18T10:07:18.690Z,7.53
2022-10-18T10:08:05.551Z,7.03
2022-10-18T10:09:19.071Z,7.30
2022-10-18T10:10:21.850Z,7.40
2022-10-18T10:11:45.561Z,7.68
2022-10-18T10:12:34.969Z,7.35
2022-10-18T10:13:27.970Z,7.80
2022-10-18T10:14:23.761Z,8.73
2022-10-18T10:15:28.236Z,8.35
2022-10-18T10:16:19.321Z,7.60
2022-10-18T10:17:22.201Z,8.75
2022-10-18T10:18:31.980Z,8.55
2022-10-18T10:19:26.860Z,6.80
2022-10-18T10:20:25.870Z,6.57
2022-10-18T10:21:16.158Z,7.25
2022-10-18T10:22:12.996Z,7.50
2022-10-18T10:23:14.701Z,8.57
2022-10-18T10:24:01.919Z,8.57
2022-10-18T10:24:50.559Z,8.23
2022-10-18T10:25:38.831Z,6.32
2022-10-18T10:26:32.491Z,7.15
2022-10-18T10:27:31.119Z,6.30
2022-10-18T10:28:21.349Z,6.60
2022-10-18T10:29:45.555Z,6.78
2022-10-18T10:30:35.989Z,6.68
2022-10-18T10:31:32.941Z,6.53
2022-10-18T10:32:21.679Z,6.55
2022-10-18T10:33:33.350Z,6.78
2022-10-18T10:34:20.611Z,7.10
2022-10-18T10:35:34.054Z,6.82
2022-10-18T10:36:29.997Z,6.80
2022-10-18T10:37:35.003Z,6.75
2022-10-18T10:38:26.234Z,6.82
2022-10-18T10:39:19.481Z,6.35
2022-10-18T10:40:19.790Z,6.20
2022-10-18T10:41:19.983Z,6.68
2022-10-18T10:42:12.760Z,6.43
2022-10-18T10:43:18.178Z,5.93
2022-10-18T10:44:19.206Z,6.82
2022-10-18T10:45:06.490Z,6.53
2022-10-18T10:46:01.263Z,6.50
2022-10-18T10:46:50.730Z,6.70
2022-10-18T10:47:37.849Z,6.12
2022-10-18T10:48:27.837Z,6.47
2022-10-18T10:49:41.912Z,6.37
2022-10-18T10:51:38.749Z,6.55
2022-10-18T10:52:28.799Z,6.90
2022-10-18T10:53:34.749Z,7.40
2022-10-18T10:54:25.884Z,5.90
2022-10-18T10:55:34.836Z,6.45
2022-10-18T10:56:25.973Z,6.35
2022-10-18T10:58:00.091Z,6.45
2022-10-18T10:58:47.251Z,6.57
2022-10-18T11:00:44.532Z,6.07
2022-10-18T11:01:32.861Z,6.28
2022-10-18T11:02:31.450Z,6.10
2022-10-18T11:03:29.117Z,7.28
2022-10-18T11:04:30.775Z,6.22
2022-10-18T11:05:29.643Z,6.97
2022-10-18T11:06:38.594Z,6.53
2022-10-18T11:07:31.001Z,6.32
2022-10-18T11:08:24.110Z,6.43
2022-10-18T11:09:23.961Z,6.28
2022-10-18T11:10:10.691Z,6.60
2022-10-18T11:11:12.914Z,6.45
2022-10-18T11:12:39.041Z,6.20